MOIRANA/ROSSVOLL current weather conditions

sailwx.info

Wind at 0 knots

Air temperature -0.0° C
Visibility: greater than 2.2 NM
Dewpoint -1.0° C
Present weather: Light snow showers.

Last reported at 2019-Dec-05 17:50 UTC.
Time now 2019-Dec-05 19:21 UTC

Location: N 66°22' E 014°18'.
View on Google Maps.

See reports from other nearby stations

  
Tides and Currents Weather Stations Pressure Air Temp Water Temp Dewpoint Dewpoint Depression Visibility Wind Speed Wind Dir Waves Ship Positions
date/time (UTC)wind fromknots sea level pressurealtimeterstation pressurevisibilityair tempwater tempwave heightnotes
2019-Dec-05 17:50 2.2-0.0 Light snow showers.
2019-Dec-05 17:20 280 1 5.4 1.0
2019-Dec-05 16:50 180 6 3.2 1.0 Light snow showers.
2019-Dec-05 16:20 090 2 5.4 1.0 Light snow showers.
2019-Dec-05 15:50 5.4 1.0 Light snow showers.
2019-Dec-05 15:20 130 2 5.4 1.0 Light snow showers.
2019-Dec-05 14:50 330 6 5.4 2.0 Light snow showers.
2019-Dec-05 14:20 230 9 5.4 2.0 Showers in the vicinity.
2019-Dec-05 13:50 5.4 2.0 Light snow showers.
2019-Dec-05 12:50 250 9 gusting 20 3.2 3.0 Light rain showers.
2019-Dec-05 12:20 5.4 2.0 Light rain showers.
2019-Dec-05 11:50 5.4 3.0 Light rain showers.
2019-Dec-05 10:50 5.4 3.0 Light rain showers.
2019-Dec-05 10:20 5.4 3.0 Light rain showers.
2019-Dec-05 09:50 5.4 4.0 Light rain showers.
2019-Dec-05 09:20 5.4 3.0 Light rain showers.
2019-Dec-05 08:50 320 6 5.4 3.0 Light rain showers.
2019-Dec-05 08:20 5.4 4.0 Light rain showers.
2019-Dec-05 07:50 5.4 3.0 Light rain showers.
2019-Dec-05 07:20 110 5 5.4 1.0 Light rain showers.
2019-Dec-05 06:20 5.4 3.0 Showers in the vicinity.
2019-Dec-05 05:50 280 6 4.3 3.0 Light rain showers.
2019-Dec-05 05:20 280 6 5.4 3.0 Light rain showers.
2019-Dec-05 04:50 5.4 3.0 Light rain showers.
2019-Dec-04 22:20 280 6 5.4 3.0 Light rain showers.
2019-Dec-04 21:50 310 1 5.4 3.0 Light rain showers. Patches of fog.
2019-Dec-04 21:20 5.4 3.0 Light rain showers. Patches of fog.
2019-Dec-04 20:50 110 2 5.4 3.0 Light rain showers. Patches of fog.
2019-Dec-04 20:20 150 2 5.4 3.0 Fog in the vicinity.
2019-Dec-04 19:50 5.4 4.0 Light rain showers.
2019-Dec-04 19:20 300 2 5.4 5.0 Light rain showers.
2019-Dec-04 18:50 5.4 5.0 Light rain showers.
2019-Dec-04 17:50 5.4 6.0 Light rain showers.
2019-Dec-04 17:20 280 7 5.4 6.0 Light rain showers.
2019-Dec-04 16:50 280 9 5.4 6.0 Light rain showers.
2019-Dec-04 16:20 280 5 5.4 5.0 Light rain showers.
2019-Dec-04 15:50 280 6 5.4 6.0 Light rain showers.
2019-Dec-04 15:20 290 5 4.3 6.0 Light rain showers.
2019-Dec-04 14:50 290 4 3.8 6.0 Light rain showers.
2019-Dec-04 14:20 270 7 3.2 5.0 Light rain showers.
2019-Dec-04 13:50 240 8 3.8 5.0 Light rain showers.
2019-Dec-04 13:20 250 7 2.7 5.0 Light rain showers.
2019-Dec-04 12:20 270 13 gusting 22 3.8 6.0 Light rain showers.
2019-Dec-04 11:50 250 15 gusting 29 3.8 6.0 Light rain showers.
2019-Dec-04 10:50 270 18 gusting 27 2.2 6.0 Light rain showers.
2019-Dec-04 09:50 260 20 gusting 29 5.4 7.0 Light rain showers.
2019-Dec-04 09:20 260 13 gusting 22 3.2 7.0 Rain showers.
2019-Dec-04 08:50 290 9 2.7 6.0 Rain showers.
2019-Dec-04 07:50 290 11 gusting 20 2.7 6.0 Rain showers.
2019-Dec-04 07:20 290 12 5.4 6.0 Light rain showers.
2019-Dec-04 06:20 270 13 gusting 22 5.4 6.0 Light rain showers.
2019-Dec-04 05:50 280 13 5.4 6.0 Light rain.
2019-Dec-04 05:20 270 18 5.4 7.0 Light rain.
2019-Dec-04 04:50 240 17 gusting 27 5.4 6.0
2019-Dec-03 22:50 2.7-0.0 Rain.
2019-Dec-03 20:50 270 1 4.9-0.0 Rain.
2019-Dec-03 20:20 100 2 4.9-0.0 Rain.
2019-Dec-03 19:50 150 2 4.9-0.0 Rain.
2019-Dec-03 19:20 2.2-0.0 Light rain drizzle.